Orderville, Utah
Current Conditions -  °F | °C
As of 1:15 PM on Saturday 25 Oct 2014 (Local Time) from KAZC Reporting Station
Scattered Clouds Scattered Clouds  
Wind Chill: 77°   Ceiling: Unl
Heat Index: 78°   Visibility: 10mi
Dew Point: 40°   Wind: 17mph
Humidity: 26%   Direction: 190°S
Pressure: 30.22"   Gusts: 22mph
Location:  37.28°N, 112.64°W
Report Text: KAZC 251915Z AUTO 19015G19KT 10SM SCT075 25/04 A3022 RMK AO2 T02520044
Loading
Personal Weather Stations






























Interactive Weather Map
Tropical Storm Tracking
New forecast layout! Learn more

10-Day Weather Forecast

Advertisements
Track Severe Weather on mobile